Time;durP1;ratioP1;P1;durP2;ratioP2;P2;SDS_P1;SDS_P2;PMS_P1;PMS_P2;Temp;Humidity;BMP_temperature;BMP_pressure;BME280_temperature;BME280_humidity;BME280_pressure;Samples;Min_cycle;Max_cycle;Signal;HPM_P1;HPM_P2
2024/01/25 00:01:49;;;;;;;8.07;2.70;;;5.80;99.90;;;;;;5002583;28;20018;-75
2024/01/25 00:04:15;;;;;;;10.52;2.78;;;;;;;;;;4992842;28;20510;-75
2024/01/25 00:06:41;;;;;;;7.93;2.85;;;;;;;;;;4990004;28;20018;-75
2024/01/25 00:09:08;;;;;;;4.75;2.38;;;;;;;;;;5002938;28;20066;-75
2024/01/25 00:11:35;;;;;;;3.17;2.53;;;;;;;;;;5002825;28;20018;-75
2024/01/25 00:14:01;;;;;;;6.38;2.58;;;;;;;;;;4990060;28;20023;-75
2024/01/25 00:16:27;;;;;;;4.65;2.58;;;5.60;99.90;;;;;;4989773;28;20047;-75
2024/01/25 00:18:53;;;;;;;3.78;1.95;;;;;;;;;;4989875;28;20036;-75
2024/01/25 00:21:20;;;;;;;7.32;2.58;;;;;;;;;;4990206;28;20044;-75
2024/01/25 00:23:45;;;;;;;4.40;1.90;;;5.50;99.90;;;;;;4990571;28;20030;-76
2024/01/25 00:26:11;;;;;;;8.52;2.47;;;5.50;99.90;;;;;;4996336;28;20044;-75
2024/01/25 00:28:37;;;;;;;2.35;1.60;;;;;;;;;;5009733;28;20025;-75
2024/01/25 00:31:03;;;;;;;4.97;1.92;;;;;;;;;;4989832;28;20431;-75
2024/01/25 00:33:29;;;;;;;4.82;2.28;;;;;;;;;;4990483;28;20045;-75
2024/01/25 00:35:55;;;;;;;5.28;2.20;;;;;;;;;;4990371;28;20058;-75
2024/01/25 00:38:21;;;;;;;5.50;2.20;;;;;;;;;;4990532;28;20081;-75
2024/01/25 00:40:47;;;;;;;4.43;2.63;;;;;;;;;;4990446;28;20065;-75
2024/01/25 00:43:13;;;;;;;8.30;3.63;;;5.20;99.90;;;;;;4989652;28;20050;-75
2024/01/25 00:45:39;;;;;;;5.40;2.03;;;5.20;99.90;;;;;;4989472;28;20129;-75
2024/01/25 00:48:06;;;;;;;3.45;2.55;;;;;;;;;;4990628;28;20110;-75
2024/01/25 00:50:31;;;;;;;6.97;2.80;;;5.00;99.90;;;;;;4997108;28;20073;-75
2024/01/25 00:52:58;;;;;;;8.95;3.03;;;;;;;;;;4989696;28;20018;-75
2024/01/25 00:55:24;;;;;;;5.75;3.53;;;4.90;99.90;;;;;;4990541;28;20026;-75
2024/01/25 00:57:51;;;;;;;7.25;2.60;;;5.00;99.90;;;;;;4989731;28;20106;-75
2024/01/25 01:00:17;;;;;;;;;;;5.00;99.90;;;;;;4990184;28;20038;-75
2024/01/25 01:02:43;;;;;;;2.72;2.45;;;;;;;;;;4989213;28;19916;-75
2024/01/25 01:05:10;;;;;;;7.93;2.85;;;4.90;99.90;;;;;;4989470;28;20054;-74
2024/01/25 01:07:36;;;;;;;9.87;4.27;;;;;;;;;;4989249;28;20415;-76
2024/01/25 01:10:02;;;;;;;4.85;2.92;;;4.90;99.90;;;;;;4989904;28;20272;-75
2024/01/25 01:12:29;;;;;;;4.47;2.75;;;;;;;;;;4989292;28;20033;-75
2024/01/25 01:14:54;;;;;;;5.88;3.20;;;4.60;99.90;;;;;;4987252;28;20019;-75
2024/01/25 01:17:20;;;;;;;2.95;2.30;;;;;;;;;;4990086;28;20088;-75
2024/01/25 01:19:46;;;;;;;6.80;2.17;;;;;;;;;;4989429;28;20407;-74
2024/01/25 01:22:12;;;;;;;2.65;1.40;;;;;;;;;;4989190;28;20483;-75
2024/01/25 01:24:38;;;;;;;1.95;1.63;;;;;;;;;;4989542;28;20042;-74
2024/01/25 01:27:04;;;;;;;2.63;2.10;;;;;;;;;;4988860;28;20407;-75
2024/01/25 01:29:30;;;;;;;6.18;2.42;;;5.50;99.90;;;;;;4989271;28;20033;-75
2024/01/25 01:31:56;;;;;;;9.63;2.72;;;;;;;;;;4989321;28;20034;-75
2024/01/25 01:34:22;;;;;;;3.55;2.03;;;;;;;;;;4989868;28;20567;-75
2024/01/25 01:36:48;;;;;;;2.85;2.10;;;;;;;;;;4989404;28;20054;-76
2024/01/25 01:39:14;;;;;;;3.92;1.60;;;;;;;;;;4990300;28;20041;-75
2024/01/25 01:41:40;;;;;;;7.80;2.92;;;;;;;;;;4988817;28;20506;-75
2024/01/25 01:44:06;;;;;;;5.28;2.72;;;;;;;;;;4990149;28;20050;-75
2024/01/25 01:46:37;;;;;;;7.43;3.10;;;5.00;99.90;;;;;;4988587;28;20038;-75
2024/01/25 01:49:14;;;;;;;5.47;2.88;;;4.90;99.90;;;;;;4977882;28;20026;-75
2024/01/25 01:51:41;;;;;;;7.53;4.05;;;4.50;99.90;;;;;;4989983;28;20057;-75
2024/01/25 01:54:07;;;;;;;5.97;3.17;;;4.70;99.90;;;;;;4990100;28;20026;-75
2024/01/25 01:56:33;;;;;;;10.73;2.60;;;4.50;99.90;;;;;;4989724;28;20492;-75
2024/01/25 01:59:04;;;;;;;8.43;3.35;;;4.60;99.90;;;;;;4988827;28;20508;-75
2024/01/25 02:01:30;;;;;;;4.63;2.65;;;;;;;;;;4987699;28;20029;-75
2024/01/25 02:03:56;;;;;;;9.60;2.97;;;;;;;;;;4990413;28;20061;-75
2024/01/25 02:06:24;;;;;;;7.22;2.92;;;4.00;99.90;;;;;;4992612;28;20503;-75
2024/01/25 02:08:50;;;;;;;4.43;1.55;;;;;;;;;;4992530;28;20030;-75
2024/01/25 02:11:17;;;;;;;4.10;2.10;;;;;;;;;;4992004;28;20081;-75
2024/01/25 02:13:43;;;;;;;3.83;1.88;;;;;;;;;;5002276;28;20268;-75
2024/01/25 02:16:09;;;;;;;2.50;1.00;;;;;;;;;;4994717;28;20507;-75
2024/01/25 02:18:35;;;;;;;7.47;1.83;;;;;;;;;;4992576;28;20092;-75
2024/01/25 02:21:01;;;;;;;2.47;1.70;;;;;;;;;;4992263;28;20578;-75
2024/01/25 02:23:27;;;;;;;3.97;1.95;;;4.40;99.90;;;;;;5002260;28;20566;-75
2024/01/25 02:25:53;;;;;;;4.25;1.58;;;;;;;;;;5010064;28;20129;-75
2024/01/25 02:28:19;;;;;;;7.38;2.65;;;4.10;99.90;;;;;;5000923;28;20097;-75
2024/01/25 02:30:45;;;;;;;4.20;3.00;;;;;;;;;;4995711;28;20108;-75
2024/01/25 02:33:11;;;;;;;4.03;2.38;;;;;;;;;;5001615;28;20077;-75
2024/01/25 02:35:37;;;;;;;4.65;3.85;;;3.90;99.90;;;;;;4992201;28;20038;-75
2024/01/25 02:38:03;;;;;;;6.40;2.63;;;;;;;;;;4992197;28;20106;-75
2024/01/25 02:40:29;;;;;;;5.00;2.72;;;3.80;99.90;;;;;;4991682;28;20274;-75
2024/01/25 02:42:56;;;;;;;12.30;3.13;;;;;;;;;;4985078;28;20058;-75
2024/01/25 02:45:22;;;;;;;5.63;2.50;;;;;;;;;;4991755;28;20042;-75
2024/01/25 02:47:48;;;;;;;2.45;1.85;;;3.80;99.90;;;;;;4989711;28;20108;-75
2024/01/25 02:50:14;;;;;;;2.58;2.28;;;3.80;99.90;;;;;;4999360;28;20542;-75
2024/01/25 02:52:40;;;;;;;7.65;2.30;;;;;;;;;;4997906;28;20065;-75
2024/01/25 02:55:06;;;;;;;2.40;1.52;;;;;;;;;;5010861;28;20033;-75
2024/01/25 02:57:32;;;;;;;2.63;1.23;;;;;;;;;;5011249;28;20068;-75
2024/01/25 02:59:57;;;;;;;2.28;1.85;;;3.80;99.90;;;;;;5001078;28;20030;-74
2024/01/25 03:02:23;;;;;;;3.22;1.92;;;3.90;99.90;;;;;;4993970;28;20022;-75
2024/01/25 03:04:49;;;;;;;4.97;2.72;;;;;;;;;;5010296;28;20407;-74
2024/01/25 03:07:15;;;;;;;1.75;1.33;;;;;;;;;;5010099;28;20029;-75
2024/01/25 03:09:41;;;;;;;5.05;2.92;;;;;;;;;;5010402;28;20113;-75
2024/01/25 03:12:07;;;;;;;2.80;2.13;;;;;;;;;;5010007;28;20457;-75
2024/01/25 03:14:33;;;;;;;3.20;2.40;;;3.90;99.90;;;;;;5000867;28;20030;-75
2024/01/25 03:16:59;;;;;;;1.50;1.35;;;;;;;;;;4991046;28;20380;-75
2024/01/25 03:19:28;;;;;;;2.10;1.65;;;3.70;99.90;;;;;;5006220;28;20557;-75
2024/01/25 03:21:54;;;;;;;2.60;1.17;;;3.90;99.90;;;;;;4996071;28;20038;-75
2024/01/25 03:24:20;;;;;;;1.77;1.52;;;;;;;;;;4990226;28;20601;-75
2024/01/25 03:26:46;;;;;;;2.72;1.33;;;;;;;;;;5000855;28;20064;-75
2024/01/25 03:29:12;;;;;;;3.35;1.65;;;3.80;99.90;;;;;;5006950;28;20031;-75
2024/01/25 03:31:38;;;;;;;1.65;1.10;;;;;;;;;;5000180;28;20109;-75
2024/01/25 03:34:04;;;;;;;4.13;2.25;;;3.70;99.90;;;;;;4993978;28;20549;-75
2024/01/25 03:36:31;;;;;;;4.53;2.05;;;3.70;99.90;;;;;;5000438;28;20029;-75
2024/01/25 03:38:57;;;;;;;1.73;1.58;;;;;;;;;;4994771;28;20022;-75
2024/01/25 03:41:23;;;;;;;1.70;1.17;;;;;;;;;;4990650;28;20483;-75
2024/01/25 03:43:49;;;;;;;1.05;0.82;;;;;;;;;;4990894;28;20423;-75
2024/01/25 03:46:15;;;;;;;0.85;0.85;;;;;;;;;;4991340;28;20033;-75
2024/01/25 03:48:42;;;;;;;4.20;0.75;;;;;;;;;;4991327;28;20022;-75
2024/01/25 03:51:08;;;;;;;2.95;1.45;;;;;;;;;;4990723;28;20139;-75
2024/01/25 03:53:33;;;;;;;2.47;1.40;;;3.70;99.90;;;;;;4990848;28;20026;-75
2024/01/25 03:55:59;;;;;;;2.83;1.23;;;;;;;;;;4990402;28;20372;-75
2024/01/25 03:58:25;;;;;;;1.80;1.27;;;;;;;;;;5005835;28;20530;-75
2024/01/25 04:00:51;;;;;;;1.65;1.33;;;;;;;;;;4991069;28;20034;-75
2024/01/25 04:03:17;;;;;;;2.63;1.45;;;;;;;;;;4990479;28;20735;-75
2024/01/25 04:05:43;;;;;;;1.40;1.30;;;3.60;99.90;;;;;;4989946;28;20034;-74
2024/01/25 04:08:09;;;;;;;2.45;1.38;;;;;;;;;;4990836;28;20026;-75
2024/01/25 04:10:35;;;;;;;1.10;0.80;;;3.70;99.90;;;;;;4989154;28;20404;-75
2024/01/25 04:13:01;;;;;;;2.35;1.52;;;;;;;;;;4991002;28;20101;-75
2024/01/25 04:15:27;;;;;;;6.20;2.00;;;;;;;;;;4990947;28;20027;-75
2024/01/25 04:17:53;;;;;;;3.20;1.60;;;;;;;;;;4991769;28;20022;-75
2024/01/25 04:20:19;;;;;;;2.35;1.75;;;3.80;99.90;;;;;;4990692;28;20033;-74
2024/01/25 04:22:45;;;;;;;5.18;1.95;;;;;;;;;;4991312;28;20419;-75
2024/01/25 04:25:11;;;;;;;5.05;1.73;;;3.80;99.90;;;;;;4990701;28;20038;-75
2024/01/25 04:27:38;;;;;;;2.05;1.90;;;3.80;99.90;;;;;;4990516;28;20033;-75
2024/01/25 04:30:04;;;;;;;2.10;1.70;;;3.90;99.90;;;;;;4990516;28;20036;-75
2024/01/25 04:32:30;;;;;;;1.60;1.27;;;3.80;99.90;;;;;;4990563;28;20454;-75
2024/01/25 04:34:56;;;;;;;2.10;1.30;;;;;;;;;;4990177;28;20113;-75
2024/01/25 04:37:22;;;;;;;2.88;1.60;;;;;;;;;;4991086;28;20031;-75
2024/01/25 04:39:48;;;;;;;1.52;1.40;;;;;;;;;;4990221;28;20450;-75
2024/01/25 04:42:15;;;;;;;5.82;2.25;;;4.30;99.90;;;;;;4989752;28;20018;-75
2024/01/25 04:44:41;;;;;;;2.80;1.45;;;4.40;99.90;;;;;;4990243;28;20359;-75
2024/01/25 04:47:09;;;;;;;2.33;1.63;;;4.50;99.90;;;;;;4990718;28;20038;-75
2024/01/25 04:49:35;;;;;;;5.40;2.40;;;;;;;;;;4989886;28;20049;-75
2024/01/25 04:52:01;;;;;;;11.73;1.60;;;;;;;;;;4990072;28;20507;-75
2024/01/25 04:54:27;;;;;;;5.72;1.83;;;;;;;;;;4989381;28;20084;-75
2024/01/25 04:56:53;;;;;;;4.43;2.95;;;4.60;99.90;;;;;;5002796;28;20033;-75
2024/01/25 04:59:19;;;;;;;4.20;1.98;;;;;;;;;;4989193;28;20019;-75
2024/01/25 05:01:45;;;;;;;3.65;1.73;;;;;;;;;;4989594;28;20031;-74
2024/01/25 05:04:11;;;;;;;7.45;1.95;;;;;;;;;;4989849;28;20507;-75
2024/01/25 05:06:37;;;;;;;3.17;1.83;;;;;;;;;;4990543;28;20030;-75
2024/01/25 05:09:03;;;;;;;5.75;2.65;;;5.00;99.90;;;;;;4989794;28;20085;-75
2024/01/25 05:11:29;;;;;;;2.35;1.40;;;;;;;;;;4990415;28;20030;-75
2024/01/25 05:13:55;;;;;;;3.05;1.98;;;;;;;;;;4989917;28;20030;-75
2024/01/25 05:16:21;;;;;;;9.75;1.77;;;4.90;99.90;;;;;;4990183;28;20037;-75
2024/01/25 05:18:47;;;;;;;1.95;1.50;;;;;;;;;;4988646;28;20043;-75
2024/01/25 05:21:13;;;;;;;1.90;1.67;;;;;;;;;;4989744;28;20049;-75
2024/01/25 05:23:39;;;;;;;2.08;1.67;;;;;;;;;;4990149;28;20101;-75
2024/01/25 05:26:06;;;;;;;1.63;1.50;;;5.40;99.90;;;;;;4990470;28;20031;-75
2024/01/25 05:28:32;;;;;;;2.47;1.70;;;;;;;;;;4990148;28;20038;-75
2024/01/25 05:30:58;;;;;;;3.67;2.38;;;;;;;;;;4989026;28;20130;-75
2024/01/25 05:33:24;;;;;;;5.25;2.53;;;;;;;;;;4989120;28;20113;-74
2024/01/25 05:35:50;;;;;;;2.55;1.60;;;5.30;99.90;;;;;;4991965;28;20030;-75
2024/01/25 05:38:16;;;;;;;2.90;1.48;;;5.40;99.90;;;;;;4992467;28;20109;-75
2024/01/25 05:40:42;;;;;;;5.25;1.73;;;;;;;;;;4995506;28;20031;-75
2024/01/25 05:43:08;;;;;;;8.27;3.53;;;4.80;99.90;;;;;;4994505;28;20049;-75
2024/01/25 05:45:34;;;;;;;4.18;2.97;;;;;;;;;;4995011;28;20105;-75
2024/01/25 05:48:01;;;;;;;13.43;5.30;;;5.30;99.90;;;;;;4994011;28;20436;-75
2024/01/25 05:50:27;;;;;;;25.95;7.28;;;;;;;;;;4994662;28;20065;-75
2024/01/25 05:52:53;;;;;;;25.05;9.82;;;;;;;;;;5002903;28;20030;-75
2024/01/25 05:55:19;;;;;;;22.58;6.55;;;;;;;;;;5011640;28;20025;-75
2024/01/25 05:57:45;;;;;;;10.82;4.78;;;;;;;;;;5006867;28;20033;-75
2024/01/25 06:00:12;;;;;;;10.57;5.00;;;5.20;99.90;;;;;;5007563;28;20034;-75
2024/01/25 06:02:38;;;;;;;18.70;7.43;;;5.30;99.90;;;;;;4992485;28;20030;-75
2024/01/25 06:05:04;;;;;;;21.73;5.55;;;5.30;99.90;;;;;;4998862;28;20049;-75
2024/01/25 06:07:30;;;;;;;16.25;4.93;;;5.30;99.90;;;;;;5001468;28;20536;-75
2024/01/25 06:09:56;;;;;;;10.23;4.55;;;;;;;;;;4992120;28;20060;-75
2024/01/25 06:12:22;;;;;;;8.15;3.72;;;;;;;;;;4992830;28;20392;-75
2024/01/25 06:14:48;;;;;;;6.88;3.22;;;;;;;;;;4997256;28;20277;-77
2024/01/25 06:17:14;;;;;;;5.13;1.77;;;5.80;99.90;;;;;;4997673;28;20026;-78
2024/01/25 06:19:40;;;;;;;4.35;1.77;;;;;;;;;;5001225;28;20045;-77
2024/01/25 06:22:06;;;;;;;5.53;2.05;;;;;;;;;;4997122;28;20022;-78
2024/01/25 06:24:32;;;;;;;3.90;3.28;;;;;;;;;;4995096;28;20414;-77
2024/01/25 06:26:58;;;;;;;7.20;3.70;;;;;;;;;;4993217;28;20027;-78
2024/01/25 06:29:24;;;;;;;12.05;2.95;;;5.90;99.90;;;;;;4996049;28;20471;-77
2024/01/25 06:31:50;;;;;;;5.70;3.03;;;;;;;;;;4998332;28;20084;-77
2024/01/25 06:34:15;;;;;;;3.95;2.55;;;;;;;;;;5002859;28;20037;-79
2024/01/25 06:36:42;;;;;;;5.68;3.53;;;;;;;;;;5007730;28;20045;-78
2024/01/25 06:39:08;;;;;;;10.00;3.45;;;5.70;99.90;;;;;;5002753;28;20503;-76
2024/01/25 06:41:34;;;;;;;4.28;3.35;;;;;;;;;;4992730;28;20542;-78
2024/01/25 06:44:01;;;;;;;3.25;2.08;;;;;;;;;;4993924;28;20514;-78
2024/01/25 06:46:27;;;;;;;4.50;3.03;;;;;;;;;;5005162;28;20060;-78
2024/01/25 06:48:53;;;;;;;7.97;3.35;;;;;;;;;;5002702;28;20026;-77
2024/01/25 06:51:19;;;;;;;11.93;4.45;;;;;;;;;;4989555;28;20051;-78
2024/01/25 06:53:45;;;;;;;2.45;2.25;;;5.80;99.90;;;;;;4989174;28;20394;-78
2024/01/25 06:56:11;;;;;;;6.95;3.63;;;;;;;;;;4993187;28;20026;-78
2024/01/25 06:58:37;;;;;;;5.32;2.97;;;;;;;;;;4995581;28;20030;-78
2024/01/25 07:01:04;;;;;;;21.85;6.60;;;;;;;;;;4993355;28;20570;-78
2024/01/25 07:03:30;;;;;;;20.63;13.18;;;;;;;;;;4996601;28;20110;-78
2024/01/25 07:05:56;;;;;;;13.80;4.72;;;;;;;;;;4992477;28;20185;-78
2024/01/25 07:08:24;;;;;;;5.88;3.17;;;;;;;;;;4995137;28;20033;-78
2024/01/25 07:10:49;;;;;;;10.63;5.60;;;6.20;99.90;;;;;;4991840;28;20027;-78
2024/01/25 07:13:15;;;;;;;65.43;15.80;;;6.00;99.90;;;;;;4995652;28;20026;-78
2024/01/25 07:15:42;;;;;;;29.20;13.65;;;5.90;99.90;;;;;;4989808;28;20034;-78
2024/01/25 07:18:08;;;;;;;14.57;5.60;;;;;;;;;;4993546;28;20022;-75
2024/01/25 07:20:33;;;;;;;9.90;5.43;;;5.90;99.90;;;;;;4999999;28;20087;-75
2024/01/25 07:22:59;;;;;;;9.25;5.38;;;;;;;;;;5000521;28;20830;-75
2024/01/25 07:25:25;;;;;;;5.93;4.50;;;5.90;99.90;;;;;;4985258;28;20539;-75
2024/01/25 07:27:51;;;;;;;13.98;5.43;;;;;;;;;;4989741;28;20022;-75
2024/01/25 07:30:17;;;;;;;14.20;7.25;;;;;;;;;;4983177;28;20122;-74
2024/01/25 07:32:43;;;;;;;10.07;5.25;;;;;;;;;;4985991;28;20105;-74
2024/01/25 07:35:12;;;;;;;11.95;5.18;;;6.20;99.90;;;;;;4989046;28;20030;-74
2024/01/25 07:37:40;;;;;;;14.95;4.38;;;6.20;99.90;;;;;;4988582;28;20155;-73
2024/01/25 07:40:07;;;;;;;4.85;3.47;;;;;;;;;;4989107;28;20072;-74
2024/01/25 07:42:33;;;;;;;16.50;6.30;;;;;;;;;;4988326;28;20038;-73
2024/01/25 07:44:59;;;;;;;17.38;7.10;;;6.50;99.90;;;;;;4988075;28;20435;-75
2024/01/25 07:47:25;;;;;;;8.15;3.90;;;;;;;;;;4986374;28;20019;-74
2024/01/25 07:49:51;;;;;;;19.98;6.30;;;;;;;;;;4978165;28;20023;-74
2024/01/25 07:52:17;;;;;;;24.60;8.20;;;;;;;;;;4986804;28;20029;-74
2024/01/25 07:54:44;;;;;;;14.38;6.05;;;6.70;99.90;;;;;;4987799;28;20026;-76
2024/01/25 07:57:10;;;;;;;16.38;6.25;;;6.90;99.90;;;;;;4976979;28;20034;-76
2024/01/25 07:59:35;;;;;;;10.93;6.18;;;7.00;99.90;;;;;;4989110;28;20385;-75
2024/01/25 08:02:01;;;;;;;12.05;6.55;;;;;;;;;;4988419;28;20027;-76
2024/01/25 08:04:27;;;;;;;12.43;5.50;;;;;;;;;;4989023;28;20419;-76
2024/01/25 08:06:53;;;;;;;15.82;7.90;;;;;;;;;;4988468;28;20104;-77
2024/01/25 08:09:19;;;;;;;10.73;5.38;;;;;;;;;;4989344;28;20200;-76
2024/01/25 08:11:45;;;;;;;7.65;3.70;;;7.10;99.90;;;;;;4988822;28;20037;-76
2024/01/25 08:14:11;;;;;;;7.93;3.78;;;;;;;;;;4988850;28;20017;-75
2024/01/25 08:16:37;;;;;;;9.93;4.30;;;;;;;;;;4988958;28;20045;-75
2024/01/25 08:19:04;;;;;;;19.13;8.02;;;;;;;;;;4988701;28;20025;-75
2024/01/25 08:21:30;;;;;;;18.33;7.60;;;7.30;99.90;;;;;;4988608;28;20034;-75
2024/01/25 08:23:55;;;;;;;33.80;12.77;;;7.40;99.90;;;;;;4989622;28;20033;-75
2024/01/25 08:26:21;;;;;;;18.75;8.98;;;7.50;99.90;;;;;;4988891;28;20500;-76
2024/01/25 08:28:47;;;;;;;27.27;9.23;;;;;;;;;;4988401;28;20484;-75
2024/01/25 08:31:13;;;;;;;43.50;14.88;;;7.80;99.90;;;;;;4988764;28;20097;-77
2024/01/25 08:33:44;;;;;;;21.75;11.25;;;7.70;99.90;;;;;;4988838;28;20113;-77
2024/01/25 08:36:10;;;;;;;16.60;10.77;;;7.90;99.90;;;;;;4988021;28;20399;-76
2024/01/25 08:38:36;;;;;;;17.67;9.75;;;;;;;;;;4988753;28;20033;-73
2024/01/25 08:41:02;;;;;;;28.13;12.13;;;;;;;;;;4988350;28;20484;-73
2024/01/25 08:43:28;;;;;;;19.83;9.93;;;;;;;;;;4988180;28;20129;-76
2024/01/25 08:45:54;;;;;;;20.88;10.15;;;;;;;;;;4987973;28;20121;-76
2024/01/25 08:48:20;;;;;;;25.73;9.82;;;9.10;99.90;;;;;;4988938;28;20026;-76
2024/01/25 08:50:46;;;;;;;27.67;10.18;;;9.30;99.90;;;;;;4987347;28;20026;-75
2024/01/25 08:53:12;;;;;;;18.92;11.07;;;9.60;99.90;;;;;;4988194;28;20037;-76
2024/01/25 08:55:38;;;;;;;22.90;10.80;;;;;;;;;;4988118;28;20112;-76
2024/01/25 08:58:04;;;;;;;11.70;5.80;;;10.30;99.90;;;;;;4988232;28;20394;-76
2024/01/25 09:00:29;;;;;;;8.27;4.63;;;10.60;99.90;;;;;;4988399;28;20027;-76
2024/01/25 09:02:55;;;;;;;15.75;6.57;;;;;;;;;;4988457;28;20435;-75
2024/01/25 09:05:22;;;;;;;7.03;4.55;;;;;;;;;;4987663;28;20112;-76
2024/01/25 09:07:47;;;;;;;10.38;4.93;;;;;;;;;;4988691;28;20429;-76
2024/01/25 09:10:13;;;;;;;11.95;5.72;;;10.90;99.90;;;;;;4988142;28;20027;-76
2024/01/25 09:12:39;;;;;;;6.78;4.38;;;;;;;;;;4989586;28;20018;-76
2024/01/25 09:15:05;;;;;;;6.07;4.20;;;;;;;;;;4992008;28;20049;-76
2024/01/25 09:17:31;;;;;;;4.85;3.65;;;;;;;;;;4992622;28;20026;-76
2024/01/25 09:20:00;;;;;;;10.27;5.72;;;;;;;;;;4991983;28;20034;-76
2024/01/25 09:22:26;;;;;;;7.25;5.30;;;;;;;;;;4991306;28;20554;-76
2024/01/25 09:24:53;;;;;;;8.43;4.50;;;11.30;98.20;;;;;;4992250;28;20042;-76
2024/01/25 09:27:19;;;;;;;8.63;4.05;;;;;;;;;;4992240;28;20117;-75
2024/01/25 09:29:45;;;;;;;14.40;5.10;;;;;;;;;;4991965;28;20097;-75
2024/01/25 09:32:11;;;;;;;12.57;5.05;;;;;;;;;;4992234;28;20018;-74
2024/01/25 09:34:38;;;;;;;11.65;4.38;;;11.30;99.90;;;;;;4991965;28;20037;-75
2024/01/25 09:37:04;;;;;;;14.70;6.22;;;11.70;99.90;;;;;;4992332;28;20022;-75
2024/01/25 09:39:32;;;;;;;13.20;5.22;;;11.70;99.90;;;;;;4992129;28;20133;-75
2024/01/25 09:41:57;;;;;;;16.15;4.43;;;12.50;98.70;;;;;;4991136;28;20034;-76
2024/01/25 09:44:23;;;;;;;5.53;3.97;;;12.80;99.90;;;;;;4991743;28;20089;-75
2024/01/25 09:46:49;;;;;;;5.88;4.30;;;;;;;;;;4991245;28;20624;-75
2024/01/25 09:49:15;;;;;;;10.07;2.80;;;15.30;99.90;;;;;;4991775;28;20427;-75
2024/01/25 09:51:42;;;;;;;6.82;3.80;;;15.80;89.50;;;;;;4990445;28;20022;-77
2024/01/25 09:54:08;;;;;;;5.13;2.80;;;;;;;;;;4991676;28;20022;-79
2024/01/25 09:56:35;;;;;;;5.43;2.83;;;16.30;95.40;;;;;;4991720;28;20041;-77
2024/01/25 09:59:02;;;;;;;7.93;4.15;;;16.50;79.30;;;;;;4991651;28;20134;-77
2024/01/25 10:01:28;;;;;;;10.05;3.92;;;;;;;;;;4991626;28;20053;-80
2024/01/25 10:03:56;;;;;;;5.35;3.95;;;18.30;92.50;;;;;;4991891;28;20061;-80
2024/01/25 10:06:22;;;;;;;6.90;3.58;;;19.60;90.00;;;;;;4989967;28;20125;-79
2024/01/25 10:08:48;;;;;;;5.47;3.67;;;;;;;;;;4992331;28;20106;-80
2024/01/25 10:11:15;;;;;;;7.70;3.30;;;;;;;;;;4992005;28;20258;-80
2024/01/25 10:13:44;;;;;;;6.22;4.20;;;29.00;56.60;;;;;;4987115;28;20031;-77
2024/01/25 10:16:12;;;;;;;5.40;3.17;;;32.90;66.70;;;;;;4988674;28;20399;-77
2024/01/25 10:18:39;;;;;;;5.50;2.78;;;35.30;59.70;;;;;;4991608;28;20053;-77
2024/01/25 10:21:06;;;;;;;5.53;2.53;;;;;;;;;;4991644;28;20105;-76
2024/01/25 10:23:32;;;;;;;3.80;2.50;;;38.40;54.70;;;;;;4989683;28;20027;-76
2024/01/25 10:25:58;;;;;;;4.03;2.28;;;;;;;;;;4989323;28;20046;-76
2024/01/25 10:28:28;;;;;;;3.75;1.85;;;38.20;54.70;;;;;;4991186;28;20030;-77
2024/01/25 10:30:57;;;;;;;3.00;1.55;;;37.80;54.20;;;;;;4990338;28;20046;-78
2024/01/25 10:33:25;;;;;;;3.42;1.38;;;37.90;43.80;;;;;;4990982;28;20098;-78
2024/01/25 10:36:01;;;;;;;2.13;1.23;;;35.80;39.30;;;;;;5005940;28;20069;-78
2024/01/25 10:38:30;;;;;;;;;;;35.80;39.70;;;;;;4991628;28;20429;-78
2024/01/25 10:40:57;;;;;;;2.75;1.38;;;35.90;42.60;;;;;;4990285;28;19976;-79
2024/01/25 10:43:23;;;;;;;1.35;1.13;;;;;;;;;;4990517;28;20053;-78
2024/01/25 10:45:53;;;;;;;3.83;0.88;;;;;;;;;;4990782;28;20033;-80
2024/01/25 10:48:19;;;;;;;3.22;1.05;;;36.60;51.30;;;;;;4989902;28;20019;-80
2024/01/25 10:50:46;;;;;;;2.10;0.80;;;37.40;46.40;;;;;;4989381;28;20029;-79
2024/01/25 10:53:13;;;;;;;1.90;1.13;;;;;;;;;;4990870;28;20507;-79
2024/01/25 10:55:39;;;;;;;4.72;0.90;;;;;;;;;;4989720;28;20522;-79
2024/01/25 10:58:08;;;;;;;3.00;0.85;;;38.10;34.60;;;;;;4990835;28;20030;-80
2024/01/25 11:00:35;;;;;;;1.83;0.90;;;38.60;33.60;;;;;;4983846;28;20036;-79
2024/01/25 11:03:01;;;;;;;3.58;1.33;;;38.60;38.10;;;;;;4989438;28;20407;-78
2024/01/25 11:05:27;;;;;;;1.25;0.88;;;37.20;32.20;;;;;;4990872;28;20121;-80
2024/01/25 11:07:53;;;;;;;2.42;1.25;;;;;;;;;;4989274;28;20468;-78
2024/01/25 11:10:20;;;;;;;1.40;0.85;;;38.30;31.20;;;;;;4979101;28;20125;-79
2024/01/25 11:13:00;;;;;;;3.45;0.70;;;38.30;30.00;;;;;;4991326;28;20328;-76
2024/01/25 11:15:34;;;;;;;1.55;0.80;;;38.70;35.20;;;;;;4990031;28;20033;-77
2024/01/25 11:18:01;;;;;;;1.58;0.90;;;40.00;30.90;;;;;;4989318;28;20079;-77
2024/01/25 11:20:28;;;;;;;0.65;0.25;;;38.00;28.40;;;;;;4990257;28;20026;-76
2024/01/25 11:22:57;;;;;;;2.45;0.93;;;32.80;28.70;;;;;;4989445;28;20026;-77
2024/01/25 11:25:23;;;;;;;0.50;0.50;;;30.50;45.80;;;;;;4988957;28;20121;-76
2024/01/25 11:27:50;;;;;;;0.77;0.50;;;30.10;32.70;;;;;;4989978;28;20113;-75
2024/01/25 11:30:17;;;;;;;;;;;30.00;31.60;;;;;;4990216;28;20046;-76
2024/01/25 11:32:43;;;;;;;1.77;0.40;;;32.40;31.80;;;;;;4988630;28;19953;-76
2024/01/25 11:35:13;;;;;;;0.87;0.50;;;;;;;;;;4989436;28;20038;-76
2024/01/25 11:37:39;;;;;;;2.42;0.80;;;;;;;;;;4989364;28;20490;-76
2024/01/25 11:40:06;;;;;;;0.77;0.40;;;;;;;;;;4989362;28;20041;-77
2024/01/25 11:42:32;;;;;;;0.38;0.38;;;;;;;;;;4989125;28;20502;-76
2024/01/25 11:44:58;;;;;;;0.82;0.60;;;30.40;47.20;;;;;;4989563;28;20038;-78
2024/01/25 11:47:24;;;;;;;0.77;0.30;;;;;;;;;;4989453;28;20554;-78
2024/01/25 11:49:50;;;;;;;1.42;0.63;;;;;;;;;;4989885;28;20322;-78
2024/01/25 11:52:16;;;;;;;1.37;0.50;;;;;;;;;;4988794;28;20030;-78
2024/01/25 11:54:42;;;;;;;2.30;0.50;;;;;;;;;;4989062;28;20558;-76
2024/01/25 11:57:08;;;;;;;4.38;2.25;;;;;;;;;;4989052;28;20041;-74
2024/01/25 11:59:34;;;;;;;4.40;0.87;;;;;;;;;;4982541;28;20027;-77
2024/01/25 12:02:01;;;;;;;1.52;0.77;;;;;;;;;;4989402;28;20041;-77
2024/01/25 12:04:27;;;;;;;1.48;0.77;;;27.20;34.00;;;;;;4989984;28;20030;-78
2024/01/25 12:06:53;;;;;;;0.75;0.57;;;;;;;;;;4989118;28;20030;-77
2024/01/25 12:09:19;;;;;;;0.30;0.30;;;;;;;;;;4989359;28;20018;-77
2024/01/25 12:11:49;;;;;;;0.60;0.43;;;24.90;45.40;;;;;;4988628;28;20030;-76
2024/01/25 12:14:16;;;;;;;1.40;1.00;;;24.00;34.70;;;;;;4989371;28;20018;-78
2024/01/25 12:16:42;;;;;;;0.75;0.52;;;;;;;;;;4989345;28;20030;-76
2024/01/25 12:19:08;;;;;;;0.68;0.40;;;;;;;;;;4988610;28;20052;-75
2024/01/25 12:21:35;;;;;;;0.77;0.55;;;22.20;55.10;;;;;;4986783;28;20535;-75
2024/01/25 12:24:01;;;;;;;0.60;0.60;;;;;;;;;;4989011;28;20045;-75
2024/01/25 12:26:27;;;;;;;1.85;1.42;;;;;;;;;;4988696;28;20030;-76
2024/01/25 12:28:53;;;;;;;1.02;0.70;;;;;;;;;;4988839;28;20045;-75
2024/01/25 12:31:18;;;;;;;1.85;0.52;;;;;;;;;;4988793;28;20088;-76
2024/01/25 12:33:45;;;;;;;1.48;1.17;;;;;;;;;;4987277;28;20065;-79
2024/01/25 12:36:10;;;;;;;0.70;0.70;;;;;;;;;;4976356;28;20068;-73
2024/01/25 12:38:36;;;;;;;0.98;0.85;;;;;;;;;;4987668;28;20566;-73
2024/01/25 12:41:03;;;;;;;0.93;0.50;;;;;;;;;;4988331;28;20037;-74
2024/01/25 12:43:29;;;;;;;1.10;1.00;;;21.10;40.70;;;;;;4987667;28;20038;-73
2024/01/25 12:45:55;;;;;;;4.47;1.73;;;;;;;;;;4987423;28;20044;-74
2024/01/25 12:48:21;;;;;;;13.65;4.07;;;;;;;;;;4987021;28;20436;-74
2024/01/25 12:50:47;;;;;;;10.00;4.03;;;20.80;43.50;;;;;;4986593;28;20307;-74
2024/01/25 12:53:14;;;;;;;9.57;4.85;;;;;;;;;;4987871;28;20550;-76
2024/01/25 12:55:40;;;;;;;5.80;1.92;;;;;;;;;;4987805;28;20026;-74
2024/01/25 12:58:06;;;;;;;12.25;3.88;;;;;;;;;;4988680;28;20101;-74
2024/01/25 13:00:33;;;;;;;14.00;5.78;;;;;;;;;;4988232;28;20038;-75
2024/01/25 13:03:01;;;;;;;29.75;9.85;;;;;;;;;;4971388;28;20516;-79
2024/01/25 13:05:27;;;;;;;17.65;8.68;;;;;;;;;;4972922;28;20066;-76
2024/01/25 13:07:53;;;;;;;4.57;2.53;;;;;;;;;;4984717;28;20041;-77
2024/01/25 13:10:19;;;;;;;6.38;2.90;;;20.00;60.40;;;;;;4984272;28;20015;-78
2024/01/25 13:12:45;;;;;;;8.55;2.83;;;19.90;56.40;;;;;;4981961;28;20058;-77
2024/01/25 13:15:11;;;;;;;3.20;1.80;;;;;;;;;;4982356;28;20363;-76
2024/01/25 13:17:37;;;;;;;1.15;1.05;;;;;;;;;;4985290;28;20034;-76
2024/01/25 13:20:06;;;;;;;1.88;1.02;;;19.70;43.10;;;;;;4985528;28;20326;-77
2024/01/25 13:22:33;;;;;;;1.45;0.70;;;;;;;;;;4979484;28;20473;-77
2024/01/25 13:24:59;;;;;;;3.42;2.80;;;19.70;45.60;;;;;;4985092;28;20038;-76
2024/01/25 13:27:26;;;;;;;0.65;0.65;;;;;;;;;;4986584;28;20101;-76
2024/01/25 13:29:52;;;;;;;1.50;1.23;;;;;;;;;;4985917;28;20037;-75
2024/01/25 13:32:18;;;;;;;0.82;0.80;;;;;;;;;;4975927;28;20030;-77
2024/01/25 13:34:43;;;;;;;4.05;1.13;;;19.50;55.20;;;;;;4986342;28;20267;-76
2024/01/25 13:37:09;;;;;;;3.15;1.38;;;;;;;;;;4984016;28;20403;-74
2024/01/25 13:39:35;;;;;;;3.78;2.60;;;;;;;;;;4986701;28;20019;-80
2024/01/25 13:42:01;;;;;;;0.50;0.50;;;19.40;50.50;;;;;;4975993;28;20023;-75
2024/01/25 13:44:26;;;;;;;2.05;0.88;;;19.20;53.00;;;;;;4985659;28;20058;-76
2024/01/25 13:46:54;;;;;;;1.98;1.35;;;;;;;;;;4984874;28;20037;-78